Wetterdaten: Woche 22.09.14 - 28.09.14 (KW39)
Datum Zeit Temp. A. Feuchte A. Luftdruck Regen Wind Richtung Taupunkt Windchill Windben
22.09.2014 00:00 18,2 C 74 % 1009,0 hPa 0,0 l/m 4,5 km/h N 13,5 C 18,2 C 21,7 km/h
22.09.2014 01:00 18,1 C 74 % 1008,6 hPa 0,0 l/m 5,8 km/h N 13,3 C 18,1 C 24,9 km/h
22.09.2014 02:00 17,4 C 78 % 1008,3 hPa 0,0 l/m 7,5 km/h N 13,4 C 16,7 C 26,5 km/h
22.09.2014 03:00 16,7 C 81 % 1008,5 hPa 0,0 l/m 5,5 km/h N 13,4 C 16,5 C 18,5 km/h
22.09.2014 04:00 14,3 C 84 % 1009,8 hPa 1,6 l/m 9,4 km/h N 11,6 C 12,8 C 27,8 km/h
22.09.2014 05:00 12,9 C 84 % 1010,6 hPa 0,3 l/m 9,4 km/h N 10,3 C 11,1 C 24,5 km/h
22.09.2014 06:00 13,1 C 82 % 1010,9 hPa 0,0 l/m 7,4 km/h N 10,1 C 12,4 C 22,5 km/h
22.09.2014 07:00 13,3 C 81 % 1011,5 hPa 0,0 l/m 6,4 km/h N 10,1 C 12,8 C 20,9 km/h
22.09.2014 08:00 13,6 C 80 % 1012,2 hPa 0,0 l/m 7,3 km/h N 10,1 C 12,9 C 21,3 km/h
22.09.2014 09:00 14,0 C 76 % 1012,3 hPa 0,0 l/m 6,5 km/h N 9,7 C 13,8 C 20,5 km/h
22.09.2014 10:00 14,7 C 78 % 1012,1 hPa 0,3 l/m 9,1 km/h N 10,8 C 13,3 C 25,8 km/h
22.09.2014 11:00 13,6 C 81 % 1012,1 hPa 0,8 l/m 7,6 km/h N 10,4 C 12,8 C 22,1 km/h
22.09.2014 12:00 14,3 C 74 % 1011,9 hPa 0,0 l/m 9,2 km/h N 9,8 C 12,8 C 26,6 km/h
22.09.2014 13:00 14,8 C 73 % 1011,8 hPa 0,0 l/m 5,3 km/h N 9,9 C 14,6 C 23,3 km/h
22.09.2014 14:00 14,7 C 70 % 1011,6 hPa 0,8 l/m 7,2 km/h N 9,2 C 13,9 C 21,7 km/h
22.09.2014 15:00 13,6 C 77 % 1011,6 hPa 0,0 l/m 8,0 km/h N 9,5 C 12,6 C 23,7 km/h
22.09.2014 16:00 14,2 C 72 % 1011,6 hPa 0,0 l/m 2,6 km/h N 9,2 C 14,2 C 12,1 km/h
22.09.2014 17:00 14,3 C 73 % 1011,7 hPa 1,3 l/m 1,5 km/h N 9,5 C 14,3 C 7,6 km/h
22.09.2014 18:00 11,3 C 81 % 1012,5 hPa 0,8 l/m 4,8 km/h N 8,1 C 11,0 C 19,3 km/h
22.09.2014 19:00 11,0 C 83 % 1012,7 hPa 0,0 l/m 1,0 km/h N 8,2 C 11,0 C 7,6 km/h
22.09.2014 20:00 10,7 C 82 % 1013,2 hPa 0,0 l/m 1,9 km/h N 7,7 C 10,7 C 11,3 km/h
22.09.2014 21:00 10,5 C 80 % 1013,3 hPa 0,0 l/m 5,8 km/h N 7,2 C 10,0 C 18,5 km/h
22.09.2014 22:00 10,8 C 76 % 1013,7 hPa 0,0 l/m 7,0 km/h N 6,8 C 10,2 C 20,1 km/h
22.09.2014 23:00 10,2 C 79 % 1014,5 hPa 0,0 l/m 5,1 km/h N 6,8 C 9,9 C 18,9 km/h
23.09.2014 00:00 9,8 C 81 % 1014,4 hPa 0,0 l/m 7,6 km/h N 6,6 C 8,4 C 21,7 km/h
23.09.2014 01:00 9,7 C 80 % 1014,2 hPa 0,0 l/m 9,7 km/h N 6,4 C 7,4 C 24,1 km/h
23.09.2014 02:00 9,8 C 78 % 1014,1 hPa 0,0 l/m 11,5 km/h N 6,1 C 6,5 C 30,2 km/h
23.09.2014 03:00 9,6 C 80 % 1013,8 hPa 0,0 l/m 10,5 km/h N 6,3 C 6,9 C 27,4 km/h
23.09.2014 04:00 9,3 C 82 % 1013,8 hPa 0,5 l/m 12,1 km/h N 6,3 C 5,6 C 31,8 km/h
23.09.2014 05:00 9,6 C 80 % 1013,7 hPa 0,0 l/m 12,6 km/h N 6,3 C 5,8 C 30,2 km/h
23.09.2014 06:00 10,0 C 79 % 1013,9 hPa 0,0 l/m 14,1 km/h N 6,5 C 5,5 C 31,4 km/h
23.09.2014 07:00 10,4 C 79 % 1014,4 hPa 0,0 l/m 13,3 km/h N 6,9 C 6,3 C 33,4 km/h
23.09.2014 08:00 10,8 C 79 % 1015,1 hPa 0,0 l/m 15,0 km/h N 7,2 C 6,1 C 34,2 km/h
23.09.2014 09:00 11,3 C 77 % 1015,9 hPa 0,0 l/m 14,5 km/h N 7,4 C 6,9 C 32,2 km/h
23.09.2014 10:00 12,0 C 76 % 1017,0 hPa 0,0 l/m 13,5 km/h N 7,9 C 8,3 C 31,4 km/h
23.09.2014 11:00 11,9 C 79 % 1017,4 hPa 0,0 l/m 12,3 km/h N 8,3 C 8,7 C 29,8 km/h
23.09.2014 12:00 13,0 C 76 % 1017,7 hPa 0,0 l/m 14,1 km/h N 8,7 C 9,1 C 33,4 km/h
23.09.2014 13:00 13,8 C 72 % 1017,8 hPa 0,0 l/m 11,6 km/h N 8,9 C 11,1 C 28,2 km/h
23.09.2014 14:00 12,5 C 79 % 1018,3 hPa 1,0 l/m 9,6 km/h N 8,9 C 10,7 C 24,1 km/h
23.09.2014 15:00 12,4 C 80 % 1018,1 hPa 0,0 l/m 9,3 km/h N 9,1 C 10,7 C 25,3 km/h
23.09.2014 16:00 13,0 C 74 % 1017,9 hPa 0,0 l/m 11,7 km/h N 8,5 C 10,2 C 27,0 km/h
23.09.2014 17:00 13,1 C 73 % 1018,2 hPa 0,0 l/m 7,1 km/h N 8,4 C 12,5 C 19,7 km/h
23.09.2014 18:00 12,9 C 73 % 1018,4 hPa 0,0 l/m 4,9 km/h N 8,1 C 12,9 C 16,1 km/h
23.09.2014 19:00 11,8 C 76 % 1018,6 hPa 0,0 l/m 1,3 km/h N 7,7 C 11,8 C 9,6 km/h
23.09.2014 20:00 10,3 C 79 % 1019,4 hPa 0,0 l/m 0,0 km/h N 6,8 C 10,3 C 0,0 km/h
23.09.2014 21:00 8,7 C 83 % 1019,9 hPa 0,0 l/m 0,0 km/h N 6,0 C 8,7 C 0,4 km/h
23.09.2014 22:00 7,8 C 85 % 1020,5 hPa 0,0 l/m 0,0 km/h N 5,4 C 7,8 C 0,0 km/h
23.09.2014 23:00 7,5 C 85 % 1020,5 hPa 0,0 l/m 0,0 km/h N 5,1 C 7,5 C 0,0 km/h
24.09.2014 00:00 6,7 C 85 % 1020,6 hPa 0,0 l/m 0,0 km/h N 4,4 C 6,7 C 0,0 km/h
24.09.2014 01:00 6,3 C 86 % 1020,4 hPa 0,0 l/m 0,0 km/h N 4,2 C 6,3 C 0,4 km/h
24.09.2014 02:00 6,3 C 84 % 1020,1 hPa 0,3 l/m 0,0 km/h N 3,8 C 6,3 C 0,4 km/h
24.09.2014 03:00 5,9 C 84 % 1019,7 hPa 0,0 l/m 0,0 km/h N 3,5 C 5,9 C 0,4 km/h
24.09.2014 04:00 5,1 C 85 % 1019,7 hPa 0,0 l/m 0,0 km/h N 2,7 C 5,1 C 0,0 km/h
24.09.2014 05:00 4,3 C 85 % 1019,3 hPa 0,0 l/m 0,0 km/h N 2,0 C 4,3 C 0,0 km/h
24.09.2014 06:00 3,9 C 84 % 1019,1 hPa 0,0 l/m 0,0 km/h N 1,4 C 3,9 C 0,0 km/h
24.09.2014 07:00 3,5 C 84 % 1019,0 hPa 0,0 l/m 0,0 km/h N 1,0 C 3,5 C 0,0 km/h
24.09.2014 08:00 4,8 C 82 % 1018,5 hPa 0,0 l/m 0,0 km/h N 2,1 C 4,8 C 0,0 km/h
24.09.2014 09:00 8,0 C 81 % 1018,1 hPa 0,0 l/m 0,7 km/h N 4,9 C 8,0 C 5,6 km/h
24.09.2014 10:00 11,8 C 83 % 1017,3 hPa 0,0 l/m 1,0 km/h N 8,9 C 11,8 C 6,0 km/h
24.09.2014 11:00 15,8 C 66 % 1016,7 hPa 0,0 l/m 4,3 km/h N 9,3 C 15,8 C 14,1 km/h
24.09.2014 12:00 17,0 C 59 % 1016,3 hPa 0,0 l/m 4,9 km/h N 8,9 C 17,0 C 17,3 km/h
24.09.2014 13:00 17,6 C 60 % 1015,6 hPa 0,0 l/m 4,7 km/h N 9,7 C 17,6 C 20,1 km/h
24.09.2014 14:00 18,0 C 61 % 1014,8 hPa 0,0 l/m 3,7 km/h N 10,4 C 18,0 C 15,7 km/h
24.09.2014 15:00 18,3 C 59 % 1014,2 hPa 0,0 l/m 4,8 km/h N 10,1 C 18,3 C 16,1 km/h
24.09.2014 16:00 18,2 C 59 % 1013,5 hPa 0,0 l/m 6,8 km/h N 10,0 C 18,0 C 19,3 km/h
24.09.2014 17:00 17,6 C 61 % 1013,0 hPa 0,0 l/m 6,6 km/h N 9,9 C 17,5 C 20,9 km/h
24.09.2014 18:00 16,7 C 64 % 1012,6 hPa 0,0 l/m 4,3 km/h N 9,7 C 16,7 C 15,7 km/h
24.09.2014 19:00 15,3 C 70 % 1012,5 hPa 0,0 l/m 2,3 km/h N 9,8 C 15,3 C 9,7 km/h
24.09.2014 20:00 14,4 C 74 % 1012,6 hPa 0,0 l/m 0,5 km/h N 9,8 C 14,4 C 4,8 km/h
24.09.2014 21:00 13,1 C 77 % 1012,6 hPa 0,0 l/m 0,1 km/h N 9,1 C 13,1 C 0,8 km/h
24.09.2014 22:00 11,7 C 81 % 1012,3 hPa 0,0 l/m 0,1 km/h N 8,6 C 11,7 C 0,8 km/h
24.09.2014 23:00 10,9 C 84 % 1012,1 hPa 0,0 l/m 0,0 km/h N 8,2 C 10,9 C 0,4 km/h
25.09.2014 00:00 10,2 C 85 % 1012,3 hPa 0,0 l/m 0,1 km/h N 7,7 C 10,2 C 1,2 km/h
25.09.2014 01:00 9,9 C 85 % 1012,4 hPa 0,0 l/m 0,3 km/h N 7,4 C 9,9 C 1,6 km/h
25.09.2014 02:00 9,0 C 85 % 1012,6 hPa 0,0 l/m 0,0 km/h N 6,6 C 9,0 C 0,0 km/h
25.09.2014 03:00 8,9 C 84 % 1012,8 hPa 0,0 l/m 0,0 km/h N 6,3 C 8,9 C 0,0 km/h
25.09.2014 04:00 9,6 C 83 % 1013,1 hPa 0,0 l/m 0,1 km/h N 6,8 C 9,6 C 1,6 km/h
25.09.2014 05:00 10,7 C 81 % 1013,4 hPa 0,0 l/m 1,3 km/h N 7,6 C 10,7 C 6,8 km/h
25.09.2014 06:00 13,6 C 80 % 1014,0 hPa 0,0 l/m 10,4 km/h N 10,2 C 11,5 C 25,8 km/h
25.09.2014 07:00 13,4 C 77 % 1015,0 hPa 0,0 l/m 7,5 km/h N 9,4 C 11,9 C 20,5 km/h
25.09.2014 08:00 13,0 C 77 % 1015,3 hPa 0,0 l/m 6,0 km/h N 9,0 C 12,8 C 23,3 km/h
25.09.2014 09:00 13,7 C 74 % 1015,7 hPa 0,0 l/m 8,0 km/h N 9,1 C 12,7 C 26,2 km/h
25.09.2014 10:00 14,2 C 72 % 1015,8 hPa 0,0 l/m 8,0 km/h N 9,1 C 13,2 C 26,5 km/h
25.09.2014 11:00 14,6 C 67 % 1016,2 hPa 0,0 l/m 10,9 km/h N 8,5 C 12,3 C 30,2 km/h
25.09.2014 12:00 14,9 C 65 % 1016,8 hPa 0,0 l/m 12,0 km/h N 8,4 C 12,2 C 31,8 km/h
25.09.2014 13:00 14,9 C 67 % 1017,2 hPa 0,0 l/m 14,0 km/h N 8,8 C 11,5 C 33,4 km/h
25.09.2014 14:00 14,6 C 71 % 1017,4 hPa 0,0 l/m 9,0 km/h N 9,4 C 13,1 C 27,8 km/h
25.09.2014 15:00 14,4 C 71 % 1017,3 hPa 0,0 l/m 8,9 km/h N 9,3 C 13,0 C 28,2 km/h
25.09.2014 16:00 15,2 C 67 % 1017,1 hPa 0,0 l/m 8,9 km/h N 9,0 C 13,9 C 25,7 km/h
25.09.2014 17:00 15,2 C 68 % 1017,6 hPa 0,0 l/m 9,4 km/h N 9,2 C 13,6 C 26,9 km/h
25.09.2014 18:00 13,4 C 76 % 1018,2 hPa 0,3 l/m 5,5 km/h N 9,2 C 13,2 C 21,3 km/h
25.09.2014 19:00 13,4 C 77 % 1018,8 hPa 0,0 l/m 7,8 km/h N 9,4 C 12,5 C 21,3 km/h
25.09.2014 20:00 13,6 C 75 % 1019,4 hPa 0,0 l/m 9,3 km/h N 9,3 C 12,0 C 23,3 km/h
25.09.2014 21:00 13,6 C 76 % 1019,8 hPa 0,0 l/m 5,1 km/h N 9,4 C 13,5 C 18,5 km/h
25.09.2014 22:00 13,9 C 75 % 1020,0 hPa 0,0 l/m 7,8 km/h N 9,5 C 13,0 C 23,3 km/h
25.09.2014 23:00 13,9 C 75 % 1020,0 hPa 0,0 l/m 9,9 km/h N 9,5 C 12,0 C 26,1 km/h
26.09.2014 00:00 13,8 C 75 % 1020,2 hPa 0,0 l/m 9,2 km/h N 9,4 C 12,3 C 24,5 km/h
26.09.2014 01:00 13,7 C 75 % 1020,5 hPa 0,0 l/m 8,0 km/h N 9,3 C 12,8 C 22,5 km/h
26.09.2014 02:00 13,3 C 76 % 1020,5 hPa 0,0 l/m 4,5 km/h N 9,2 C 13,3 C 16,9 km/h
26.09.2014 03:00 13,1 C 78 % 1020,6 hPa 0,0 l/m 6,1 km/h N 9,3 C 12,9 C 19,3 km/h
26.09.2014 04:00 13,1 C 78 % 1020,6 hPa 0,0 l/m 7,2 km/h N 9,3 C 12,7 C 20,5 km/h
26.09.2014 05:00 12,7 C 79 % 1020,6 hPa 0,0 l/m 5,4 km/h N 9,2 C 12,6 C 18,1 km/h
26.09.2014 06:00 12,7 C 79 % 1020,5 hPa 0,0 l/m 5,2 km/h N 9,1 C 12,7 C 16,1 km/h
26.09.2014 07:00 12,7 C 80 % 1020,6 hPa 0,0 l/m 4,2 km/h N 9,3 C 12,7 C 17,3 km/h
26.09.2014 08:00 13,0 C 79 % 1020,9 hPa 0,0 l/m 4,9 km/h N 9,5 C 13,0 C 17,3 km/h
26.09.2014 09:00 13,2 C 79 % 1021,4 hPa 0,0 l/m 6,8 km/h N 9,5 C 12,8 C 21,7 km/h
26.09.2014 10:00 13,4 C 79 % 1021,6 hPa 0,0 l/m 5,8 km/h N 9,8 C 13,2 C 16,5 km/h
26.09.2014 11:00 13,7 C 79 % 1021,6 hPa 0,0 l/m 5,3 km/h N 10,1 C 13,7 C 16,1 km/h
26.09.2014 12:00 14,1 C 78 % 1021,4 hPa 0,0 l/m 5,7 km/h N 10,3 C 14,0 C 19,3 km/h
26.09.2014 13:00 15,2 C 75 % 1020,9 hPa 0,0 l/m 8,1 km/h N 10,7 C 14,2 C 21,7 km/h
26.09.2014 14:00 16,1 C 70 % 1020,6 hPa 0,0 l/m 10,2 km/h N 10,6 C 14,3 C 30,6 km/h
26.09.2014 15:00 15,7 C 72 % 1020,8 hPa 0,0 l/m 10,3 km/h N 10,5 C 13,8 C 27,8 km/h
26.09.2014 16:00 15,3 C 72 % 1020,9 hPa 0,0 l/m 9,9 km/h N 10,4 C 13,5 C 25,7 km/h
26.09.2014 17:00 14,8 C 74 % 1021,0 hPa 0,0 l/m 9,4 km/h N 10,2 C 13,3 C 25,3 km/h
26.09.2014 18:00 14,5 C 76 % 1021,4 hPa 0,0 l/m 5,8 km/h N 10,3 C 14,2 C 18,9 km/h
26.09.2014 19:00 14,2 C 78 % 1021,7 hPa 0,0 l/m 5,3 km/h N 10,4 C 14,0 C 19,3 km/h
26.09.2014 20:00 13,9 C 80 % 1021,9 hPa 0,0 l/m 5,6 km/h N 10,5 C 13,9 C 20,5 km/h
26.09.2014 21:00 13,6 C 82 % 1022,2 hPa 0,0 l/m 4,2 km/h N 10,6 C 13,6 C 17,3 km/h
26.09.2014 22:00 13,5 C 83 % 1022,5 hPa 0,0 l/m 5,7 km/h N 10,7 C 13,5 C 16,5 km/h
26.09.2014 23:00 13,3 C 84 % 1022,8 hPa 0,0 l/m 7,0 km/h N 10,7 C 12,8 C 21,3 km/h
27.09.2014 00:00 13,2 C 84 % 1022,9 hPa 0,3 l/m 5,9 km/h N 10,6 C 13,1 C 19,7 km/h
27.09.2014 01:00 13,3 C 84 % 1022,9 hPa 1,0 l/m 5,3 km/h N 10,7 C 13,3 C 19,7 km/h
27.09.2014 02:00 13,4 C 83 % 1023,0 hPa 0,5 l/m 7,8 km/h N 10,6 C 12,5 C 22,9 km/h
27.09.2014 03:00 13,6 C 84 % 1023,1 hPa 0,0 l/m 6,3 km/h N 10,9 C 13,5 C 19,7 km/h
27.09.2014 04:00 13,7 C 84 % 1023,2 hPa 0,0 l/m 8,2 km/h N 11,1 C 12,6 C 21,7 km/h
27.09.2014 05:00 13,9 C 85 % 1023,6 hPa 0,0 l/m 7,1 km/h N 11,4 C 13,4 C 20,9 km/h
27.09.2014 06:00 14,0 C 85 % 1024,1 hPa 0,0 l/m 7,8 km/h N 11,6 C 13,2 C 21,3 km/h
27.09.2014 07:00 14,2 C 85 % 1024,5 hPa 0,0 l/m 7,3 km/h N 11,7 C 13,5 C 23,3 km/h
27.09.2014 08:00 14,7 C 84 % 1025,0 hPa 0,0 l/m 6,1 km/h N 12,0 C 14,5 C 19,7 km/h
27.09.2014 09:00 15,1 C 83 % 1025,7 hPa 0,0 l/m 6,9 km/h N 12,3 C 14,7 C 19,7 km/h
27.09.2014 10:00 15,5 C 83 % 1026,3 hPa 0,0 l/m 7,4 km/h N 12,6 C 14,9 C 19,7 km/h
27.09.2014 11:00 15,8 C 82 % 1026,9 hPa 0,0 l/m 7,6 km/h N 12,7 C 15,2 C 21,7 km/h
27.09.2014 12:00 16,8 C 81 % 1027,0 hPa 0,0 l/m 7,2 km/h N 13,5 C 16,3 C 21,3 km/h
27.09.2014 13:00 17,0 C 80 % 1027,1 hPa 0,0 l/m 6,6 km/h N 13,5 C 16,6 C 18,5 km/h
27.09.2014 14:00 16,5 C 81 % 1027,0 hPa 0,0 l/m 7,0 km/h N 13,2 C 16,0 C 19,7 km/h
27.09.2014 15:00 16,9 C 79 % 1026,8 hPa 0,0 l/m 6,5 km/h N 13,2 C 16,8 C 19,3 km/h
27.09.2014 16:00 17,3 C 77 % 1026,7 hPa 0,0 l/m 3,9 km/h N 13,3 C 17,3 C 16,5 km/h
27.09.2014 17:00 17,3 C 78 % 1026,6 hPa 0,0 l/m 3,8 km/h N 13,3 C 17,3 C 13,3 km/h
27.09.2014 18:00 16,8 C 79 % 1026,8 hPa 0,0 l/m 1,8 km/h N 13,1 C 16,8 C 8,8 km/h
27.09.2014 19:00 15,6 C 81 % 1026,8 hPa 0,0 l/m 0,9 km/h N 12,3 C 15,6 C 6,0 km/h
27.09.2014 20:00 14,9 C 81 % 1027,3 hPa 0,0 l/m 0,7 km/h N 11,7 C 14,9 C 5,6 km/h
27.09.2014 21:00 15,1 C 81 % 1027,8 hPa 0,0 l/m 3,1 km/h N 11,8 C 15,1 C 10,5 km/h
27.09.2014 22:00 14,6 C 81 % 1028,1 hPa 0,0 l/m 0,3 km/h N 11,4 C 14,6 C 4,4 km/h
27.09.2014 23:00 13,9 C 83 % 1028,3 hPa 0,0 l/m 0,7 km/h N 11,1 C 13,9 C 3,6 km/h
28.09.2014 00:00 12,5 C 84 % 1028,4 hPa 0,0 l/m 0,0 km/h N 9,8 C 12,5 C 0,4 km/h
28.09.2014 01:00 11,4 C 85 % 1028,7 hPa 0,0 l/m 0,0 km/h N 8,9 C 11,4 C 0,4 km/h
28.09.2014 02:00 11,0 C 85 % 1028,8 hPa 0,0 l/m 0,1 km/h N 8,6 C 11,0 C 2,4 km/h
28.09.2014 03:00 10,7 C 84 % 1028,8 hPa 0,0 l/m 0,1 km/h N 8,1 C 10,7 C 2,4 km/h
28.09.2014 04:00 10,1 C 84 % 1028,8 hPa 0,0 l/m 0,0 km/h N 7,5 C 10,1 C 0,4 km/h
28.09.2014 05:00 9,0 C 84 % 1028,7 hPa 0,0 l/m 0,0 km/h N 6,4 C 9,0 C 0,8 km/h
28.09.2014 06:00 8,4 C 84 % 1028,9 hPa 0,0 l/m 0,0 km/h N 5,8 C 8,4 C 0,0 km/h
28.09.2014 07:00 7,9 C 84 % 1029,3 hPa 0,0 l/m 0,0 km/h N 5,3 C 7,9 C 0,8 km/h
28.09.2014 08:00 9,7 C 81 % 1029,3 hPa 0,0 l/m 0,1 km/h N 6,6 C 9,7 C 1,6 km/h
28.09.2014 09:00 12,8 C 79 % 1029,3 hPa 0,0 l/m 0,6 km/h N 9,2 C 12,8 C 4,8 km/h
28.09.2014 10:00 15,5 C 83 % 1029,1 hPa 0,0 l/m 1,0 km/h N 12,6 C 15,5 C 5,6 km/h
28.09.2014 11:00 17,5 C 76 % 1028,8 hPa 0,0 l/m 1,5 km/h N 13,2 C 17,5 C 9,6 km/h
28.09.2014 12:00 19,4 C 71 % 1028,3 hPa 0,0 l/m 1,5 km/h N 14,0 C 19,4 C 9,2 km/h
28.09.2014 13:00 20,4 C 66 % 1027,7 hPa 0,0 l/m 1,9 km/h N 13,7 C 20,4 C 12,9 km/h
28.09.2014 14:00 20,3 C 65 % 1027,4 hPa 0,0 l/m 2,0 km/h N 13,4 C 20,3 C 10,1 km/h
28.09.2014 15:00 19,9 C 67 % 1027,2 hPa 0,0 l/m 1,9 km/h N 13,5 C 19,9 C 7,2 km/h
28.09.2014 16:00 19,8 C 68 % 1026,7 hPa 0,0 l/m 1,9 km/h N 13,7 C 19,8 C 8,0 km/h
28.09.2014 17:00 19,2 C 70 % 1026,6 hPa 0,0 l/m 1,9 km/h N 13,6 C 19,2 C 9,3 km/h
28.09.2014 18:00 18,2 C 73 % 1026,7 hPa 0,0 l/m 0,2 km/h N 13,3 C 18,2 C 2,8 km/h
28.09.2014 19:00 15,9 C 76 % 1026,7 hPa 0,0 l/m 0,0 km/h N 11,7 C 15,9 C 0,0 km/h
28.09.2014 20:00 13,8 C 82 % 1026,9 hPa 0,0 l/m 0,0 km/h N 10,7 C 13,8 C 0,0 km/h
28.09.2014 21:00 12,4 C 84 % 1026,7 hPa 0,0 l/m 0,0 km/h N 9,7 C 12,4 C 0,0 km/h
28.09.2014 22:00 11,5 C 85 % 1026,5 hPa 0,0 l/m 0,0 km/h N 9,0 C 11,5 C 0,0 km/h
28.09.2014 23:00 10,5 C 85 % 1026,2 hPa 0,0 l/m 0,0 km/h N 8,0 C 10,5 C 0,0 km/h
Min-Datum _ 24.09.14 24.09.14 22.09.14 - 22.09.14 - 24.09.14 24.09.14 22.09.14
_ Min-Zeit 07:30 16:00 02:30 - 19:30 - 07:00 07:00 19:30
Minimum _ 3,3 C 57 % 1008,2 hPa - 0,0 km/h - 1,0 C 3,4 C 0,0 km/h
Max-Datum _ 28.09.14 24.09.14 28.09.14 22.09.14 25.09.14 - 28.09.14 28.09.14 26.09.14
_ Max-Zeit 13:30 01:45 07:15 04:15 13:00 - 12:30 13:45 14:15
Maximum _ 20,7 C 89 % 1029,4 hPa 1,6 l/m 17,1 km/h
N
- 14,1 C 20,7 C 43,5 km/h
N
Durchschnitt _ 13,1 C 78 % 1019,4 hPa #9,6 l/m 5,2 km/h N 9,3 C 12,5 C 15,8 km/h